sensor_id;sensor_type;location;lat;lon;timestamp;P1;durP1;ratioP1;P2;durP2;ratioP2
17826;SDS011;9038;48.208;16.308;2022-12-10T00:00:06;7.43;;;6.73;;
17826;SDS011;9038;48.208;16.308;2022-12-10T00:02:09;7.03;;;6.33;;
17826;SDS011;9038;48.208;16.308;2022-12-10T00:04:11;7.20;;;6.50;;
17826;SDS011;9038;48.208;16.308;2022-12-10T00:06:14;7.37;;;6.67;;
17826;SDS011;9038;48.208;16.308;2022-12-10T00:08:17;7.83;;;7.07;;
17826;SDS011;9038;48.208;16.308;2022-12-10T00:10:19;7.50;;;6.80;;
17826;SDS011;9038;48.208;16.308;2022-12-10T00:12:23;7.57;;;6.83;;
17826;SDS011;9038;48.208;16.308;2022-12-10T00:14:24;7.40;;;6.70;;
17826;SDS011;9038;48.208;16.308;2022-12-10T00:16:27;7.13;;;6.43;;
17826;SDS011;9038;48.208;16.308;2022-12-10T00:18:30;7.20;;;6.50;;
17826;SDS011;9038;48.208;16.308;2022-12-10T00:20:35;6.90;;;6.30;;
17826;SDS011;9038;48.208;16.308;2022-12-10T00:22:37;7.63;;;6.60;;
17826;SDS011;9038;48.208;16.308;2022-12-10T00:24:39;6.93;;;6.23;;
17826;SDS011;9038;48.208;16.308;2022-12-10T00:26:41;7.60;;;6.87;;
17826;SDS011;9038;48.208;16.308;2022-12-10T00:28:44;7.40;;;6.70;;
17826;SDS011;9038;48.208;16.308;2022-12-10T00:30:47;7.07;;;6.27;;
17826;SDS011;9038;48.208;16.308;2022-12-10T00:32:49;6.73;;;6.13;;
17826;SDS011;9038;48.208;16.308;2022-12-10T00:34:51;5.90;;;5.37;;
17826;SDS011;9038;48.208;16.308;2022-12-10T00:36:53;7.07;;;6.37;;
17826;SDS011;9038;48.208;16.308;2022-12-10T00:38:54;7.80;;;7.00;;
17826;SDS011;9038;48.208;16.308;2022-12-10T00:40:56;6.93;;;6.27;;
17826;SDS011;9038;48.208;16.308;2022-12-10T00:42:58;7.13;;;6.40;;
17826;SDS011;9038;48.208;16.308;2022-12-10T00:45:02;7.40;;;6.70;;
17826;SDS011;9038;48.208;16.308;2022-12-10T00:47:04;6.67;;;6.13;;
17826;SDS011;9038;48.208;16.308;2022-12-10T00:49:06;7.07;;;6.37;;
17826;SDS011;9038;48.208;16.308;2022-12-10T00:51:09;7.03;;;6.37;;
17826;SDS011;9038;48.208;16.308;2022-12-10T00:53:13;7.50;;;6.03;;
17826;SDS011;9038;48.208;16.308;2022-12-10T00:55:14;7.73;;;6.93;;
17826;SDS011;9038;48.208;16.308;2022-12-10T00:57:17;7.30;;;6.60;;
17826;SDS011;9038;48.208;16.308;2022-12-10T00:59:19;6.63;;;6.03;;
17826;SDS011;9038;48.208;16.308;2022-12-10T01:01:22;7.20;;;6.50;;
17826;SDS011;9038;48.208;16.308;2022-12-10T01:03:26;7.00;;;6.30;;
17826;SDS011;9038;48.208;16.308;2022-12-10T01:05:28;6.73;;;6.13;;
17826;SDS011;9038;48.208;16.308;2022-12-10T01:07:30;7.20;;;6.50;;
17826;SDS011;9038;48.208;16.308;2022-12-10T01:09:32;6.90;;;6.20;;
17826;SDS011;9038;48.208;16.308;2022-12-10T01:11:34;6.57;;;5.93;;
17826;SDS011;9038;48.208;16.308;2022-12-10T01:13:38;6.30;;;5.70;;
17826;SDS011;9038;48.208;16.308;2022-12-10T01:15:41;6.10;;;5.50;;
17826;SDS011;9038;48.208;16.308;2022-12-10T01:17:44;6.50;;;5.90;;
17826;SDS011;9038;48.208;16.308;2022-12-10T01:19:46;7.40;;;6.57;;
17826;SDS011;9038;48.208;16.308;2022-12-10T01:21:49;6.50;;;5.90;;
17826;SDS011;9038;48.208;16.308;2022-12-10T01:23:52;6.90;;;6.20;;
17826;SDS011;9038;48.208;16.308;2022-12-10T01:25:58;7.00;;;6.30;;
17826;SDS011;9038;48.208;16.308;2022-12-10T01:28:01;6.60;;;6.00;;
17826;SDS011;9038;48.208;16.308;2022-12-10T01:30:03;6.00;;;5.37;;
17826;SDS011;9038;48.208;16.308;2022-12-10T01:32:06;6.37;;;5.77;;
17826;SDS011;9038;48.208;16.308;2022-12-10T01:34:11;6.20;;;5.60;;
17826;SDS011;9038;48.208;16.308;2022-12-10T01:36:15;6.10;;;5.50;;
17826;SDS011;9038;48.208;16.308;2022-12-10T01:38:18;5.43;;;4.93;;
17826;SDS011;9038;48.208;16.308;2022-12-10T01:40:20;5.87;;;5.30;;
17826;SDS011;9038;48.208;16.308;2022-12-10T01:42:22;5.37;;;4.90;;
17826;SDS011;9038;48.208;16.308;2022-12-10T01:46:59;6.07;;;5.47;;
17826;SDS011;9038;48.208;16.308;2022-12-10T01:49:02;6.60;;;6.00;;
17826;SDS011;9038;48.208;16.308;2022-12-10T01:51:07;5.57;;;5.00;;
17826;SDS011;9038;48.208;16.308;2022-12-10T01:53:09;6.20;;;5.53;;
17826;SDS011;9038;48.208;16.308;2022-12-10T01:57:40;6.03;;;5.43;;
17826;SDS011;9038;48.208;16.308;2022-12-10T01:59:42;6.57;;;5.67;;
17826;SDS011;9038;48.208;16.308;2022-12-10T02:01:47;6.40;;;5.80;;
17826;SDS011;9038;48.208;16.308;2022-12-10T02:03:58;6.50;;;5.90;;
17826;SDS011;9038;48.208;16.308;2022-12-10T02:06:15;5.97;;;5.37;;
17826;SDS011;9038;48.208;16.308;2022-12-10T02:08:24;6.73;;;6.00;;
17826;SDS011;9038;48.208;16.308;2022-12-10T02:10:33;6.37;;;5.77;;
17826;SDS011;9038;48.208;16.308;2022-12-10T02:12:46;7.20;;;5.83;;
17826;SDS011;9038;48.208;16.308;2022-12-10T02:14:52;6.40;;;5.77;;
17826;SDS011;9038;48.208;16.308;2022-12-10T02:16:58;6.83;;;6.13;;
17826;SDS011;9038;48.208;16.308;2022-12-10T02:19:04;7.30;;;6.57;;
17826;SDS011;9038;48.208;16.308;2022-12-10T02:21:12;7.60;;;6.83;;
17826;SDS011;9038;48.208;16.308;2022-12-10T02:23:21;7.10;;;6.33;;
17826;SDS011;9038;48.208;16.308;2022-12-10T02:25:27;7.53;;;6.57;;
17826;SDS011;9038;48.208;16.308;2022-12-10T02:27:35;7.27;;;6.57;;
17826;SDS011;9038;48.208;16.308;2022-12-10T02:29:43;7.10;;;6.40;;
17826;SDS011;9038;48.208;16.308;2022-12-10T02:31:48;7.10;;;6.40;;
17826;SDS011;9038;48.208;16.308;2022-12-10T02:33:55;7.00;;;6.30;;
17826;SDS011;9038;48.208;16.308;2022-12-10T02:36:00;7.30;;;6.57;;
17826;SDS011;9038;48.208;16.308;2022-12-10T02:38:03;8.13;;;6.73;;
17826;SDS011;9038;48.208;16.308;2022-12-10T02:40:12;7.20;;;6.50;;
17826;SDS011;9038;48.208;16.308;2022-12-10T02:42:18;8.30;;;7.43;;
17826;SDS011;9038;48.208;16.308;2022-12-10T02:44:23;7.30;;;6.60;;
17826;SDS011;9038;48.208;16.308;2022-12-10T02:46:28;8.47;;;6.67;;
17826;SDS011;9038;48.208;16.308;2022-12-10T02:48:33;7.57;;;6.87;;
17826;SDS011;9038;48.208;16.308;2022-12-10T02:50:37;8.17;;;7.37;;
17826;SDS011;9038;48.208;16.308;2022-12-10T02:52:39;6.80;;;6.00;;
17826;SDS011;9038;48.208;16.308;2022-12-10T02:54:41;7.27;;;6.57;;
17826;SDS011;9038;48.208;16.308;2022-12-10T02:56:47;7.17;;;6.47;;
17826;SDS011;9038;48.208;16.308;2022-12-10T02:58:58;7.10;;;6.40;;
17826;SDS011;9038;48.208;16.308;2022-12-10T03:01:10;7.57;;;6.77;;
17826;SDS011;9038;48.208;16.308;2022-12-10T03:03:25;6.60;;;5.90;;
17826;SDS011;9038;48.208;16.308;2022-12-10T03:05:33;7.47;;;6.73;;
17826;SDS011;9038;48.208;16.308;2022-12-10T03:07:44;7.43;;;6.73;;
17826;SDS011;9038;48.208;16.308;2022-12-10T03:09:51;7.90;;;6.67;;
17826;SDS011;9038;48.208;16.308;2022-12-10T03:11:56;7.63;;;6.83;;
17826;SDS011;9038;48.208;16.308;2022-12-10T03:14:03;7.40;;;6.60;;
17826;SDS011;9038;48.208;16.308;2022-12-10T03:16:08;7.93;;;6.90;;
17826;SDS011;9038;48.208;16.308;2022-12-10T03:18:10;8.37;;;7.00;;
17826;SDS011;9038;48.208;16.308;2022-12-10T03:20:17;7.87;;;7.07;;
17826;SDS011;9038;48.208;16.308;2022-12-10T03:22:19;7.90;;;7.10;;
17826;SDS011;9038;48.208;16.308;2022-12-10T03:24:21;7.93;;;7.13;;
17826;SDS011;9038;48.208;16.308;2022-12-10T03:26:24;7.80;;;7.10;;
17826;SDS011;9038;48.208;16.308;2022-12-10T03:28:27;7.77;;;6.97;;
17826;SDS011;9038;48.208;16.308;2022-12-10T03:30:34;8.80;;;7.90;;
17826;SDS011;9038;48.208;16.308;2022-12-10T03:32:40;8.60;;;7.70;;
17826;SDS011;9038;48.208;16.308;2022-12-10T03:34:43;9.03;;;7.70;;
17826;SDS011;9038;48.208;16.308;2022-12-10T03:36:47;8.60;;;7.70;;
17826;SDS011;9038;48.208;16.308;2022-12-10T03:38:50;8.63;;;7.73;;
17826;SDS011;9038;48.208;16.308;2022-12-10T03:40:53;8.43;;;7.63;;
17826;SDS011;9038;48.208;16.308;2022-12-10T03:42:55;9.53;;;8.20;;
17826;SDS011;9038;48.208;16.308;2022-12-10T03:44:57;9.33;;;7.80;;
17826;SDS011;9038;48.208;16.308;2022-12-10T03:46:59;8.13;;;7.33;;
17826;SDS011;9038;48.208;16.308;2022-12-10T03:49:01;8.70;;;7.80;;
17826;SDS011;9038;48.208;16.308;2022-12-10T03:51:04;8.00;;;7.20;;
17826;SDS011;9038;48.208;16.308;2022-12-10T03:53:07;9.30;;;8.30;;
17826;SDS011;9038;48.208;16.308;2022-12-10T03:55:09;8.50;;;7.40;;
17826;SDS011;9038;48.208;16.308;2022-12-10T03:57:12;8.87;;;7.87;;
17826;SDS011;9038;48.208;16.308;2022-12-10T03:59:14;8.57;;;7.70;;
17826;SDS011;9038;48.208;16.308;2022-12-10T04:01:16;9.03;;;7.70;;
17826;SDS011;9038;48.208;16.308;2022-12-10T04:03:18;8.77;;;7.80;;
17826;SDS011;9038;48.208;16.308;2022-12-10T04:05:20;9.17;;;8.00;;
17826;SDS011;9038;48.208;16.308;2022-12-10T04:07:22;9.07;;;7.83;;
17826;SDS011;9038;48.208;16.308;2022-12-10T04:09:25;8.73;;;7.83;;
17826;SDS011;9038;48.208;16.308;2022-12-10T04:11:27;9.33;;;8.33;;
17826;SDS011;9038;48.208;16.308;2022-12-10T04:13:30;9.77;;;8.00;;
17826;SDS011;9038;48.208;16.308;2022-12-10T04:15:50;10.27;;;8.43;;
17826;SDS011;9038;48.208;16.308;2022-12-10T04:18:10;9.13;;;8.20;;
17826;SDS011;9038;48.208;16.308;2022-12-10T04:20:12;9.60;;;8.57;;
17826;SDS011;9038;48.208;16.308;2022-12-10T04:22:27;10.63;;;9.07;;
17826;SDS011;9038;48.208;16.308;2022-12-10T04:24:48;9.60;;;8.53;;
17826;SDS011;9038;48.208;16.308;2022-12-10T04:27:23;11.27;;;8.93;;
17826;SDS011;9038;48.208;16.308;2022-12-10T04:29:27;10.30;;;8.93;;
17826;SDS011;9038;48.208;16.308;2022-12-10T04:31:31;10.00;;;8.93;;
17826;SDS011;9038;48.208;16.308;2022-12-10T04:33:32;10.20;;;9.20;;
17826;SDS011;9038;48.208;16.308;2022-12-10T04:35:34;10.47;;;8.80;;
17826;SDS011;9038;48.208;16.308;2022-12-10T04:37:36;10.03;;;8.83;;
17826;SDS011;9038;48.208;16.308;2022-12-10T04:39:38;9.77;;;8.77;;
17826;SDS011;9038;48.208;16.308;2022-12-10T04:41:42;10.93;;;9.83;;
17826;SDS011;9038;48.208;16.308;2022-12-10T04:43:46;10.57;;;9.47;;
17826;SDS011;9038;48.208;16.308;2022-12-10T04:45:47;10.77;;;9.60;;
17826;SDS011;9038;48.208;16.308;2022-12-10T04:47:49;11.43;;;9.57;;
17826;SDS011;9038;48.208;16.308;2022-12-10T04:49:51;11.17;;;9.80;;
17826;SDS011;9038;48.208;16.308;2022-12-10T04:51:53;10.47;;;9.23;;
17826;SDS011;9038;48.208;16.308;2022-12-10T04:53:56;12.20;;;10.30;;
17826;SDS011;9038;48.208;16.308;2022-12-10T04:55:58;12.17;;;9.97;;
17826;SDS011;9038;48.208;16.308;2022-12-10T04:58:02;11.93;;;9.90;;
17826;SDS011;9038;48.208;16.308;2022-12-10T05:00:04;13.77;;;10.40;;
17826;SDS011;9038;48.208;16.308;2022-12-10T05:02:07;12.00;;;9.77;;
17826;SDS011;9038;48.208;16.308;2022-12-10T05:04:10;11.77;;;9.73;;
17826;SDS011;9038;48.208;16.308;2022-12-10T05:06:15;12.83;;;10.50;;
17826;SDS011;9038;48.208;16.308;2022-12-10T05:08:18;13.60;;;11.00;;
17826;SDS011;9038;48.208;16.308;2022-12-10T05:10:20;12.27;;;10.03;;
17826;SDS011;9038;48.208;16.308;2022-12-10T05:12:21;11.37;;;10.20;;
17826;SDS011;9038;48.208;16.308;2022-12-10T05:14:25;11.30;;;10.00;;
17826;SDS011;9038;48.208;16.308;2022-12-10T05:16:27;12.30;;;10.27;;
17826;SDS011;9038;48.208;16.308;2022-12-10T05:18:31;13.63;;;10.23;;
17826;SDS011;9038;48.208;16.308;2022-12-10T05:20:33;13.07;;;10.50;;
17826;SDS011;9038;48.208;16.308;2022-12-10T05:22:35;11.00;;;9.67;;
17826;SDS011;9038;48.208;16.308;2022-12-10T05:24:54;14.93;;;10.87;;
17826;SDS011;9038;48.208;16.308;2022-12-10T05:26:56;13.00;;;10.60;;
17826;SDS011;9038;48.208;16.308;2022-12-10T05:28:58;13.37;;;11.13;;
17826;SDS011;9038;48.208;16.308;2022-12-10T05:31:01;12.30;;;10.57;;
17826;SDS011;9038;48.208;16.308;2022-12-10T05:33:03;13.97;;;10.77;;
17826;SDS011;9038;48.208;16.308;2022-12-10T05:35:06;13.93;;;10.77;;
17826;SDS011;9038;48.208;16.308;2022-12-10T05:37:08;12.20;;;10.50;;
17826;SDS011;9038;48.208;16.308;2022-12-10T05:39:10;11.73;;;10.07;;
17826;SDS011;9038;48.208;16.308;2022-12-10T05:41:13;12.33;;;10.07;;
17826;SDS011;9038;48.208;16.308;2022-12-10T05:43:16;14.60;;;10.70;;
17826;SDS011;9038;48.208;16.308;2022-12-10T05:45:18;12.97;;;11.00;;
17826;SDS011;9038;48.208;16.308;2022-12-10T05:47:21;13.67;;;11.03;;
17826;SDS011;9038;48.208;16.308;2022-12-10T05:49:23;14.43;;;11.07;;
17826;SDS011;9038;48.208;16.308;2022-12-10T05:51:26;15.67;;;11.47;;
17826;SDS011;9038;48.208;16.308;2022-12-10T05:53:30;14.97;;;11.10;;
17826;SDS011;9038;48.208;16.308;2022-12-10T05:55:32;14.80;;;11.20;;
17826;SDS011;9038;48.208;16.308;2022-12-10T05:57:35;14.63;;;11.40;;
17826;SDS011;9038;48.208;16.308;2022-12-10T05:59:37;15.13;;;10.90;;
17826;SDS011;9038;48.208;16.308;2022-12-10T06:01:39;14.60;;;10.93;;
17826;SDS011;9038;48.208;16.308;2022-12-10T06:03:43;13.97;;;11.50;;
17826;SDS011;9038;48.208;16.308;2022-12-10T06:05:45;13.70;;;10.83;;
17826;SDS011;9038;48.208;16.308;2022-12-10T06:07:47;14.17;;;11.53;;
17826;SDS011;9038;48.208;16.308;2022-12-10T06:09:49;16.60;;;11.70;;
17826;SDS011;9038;48.208;16.308;2022-12-10T06:11:51;13.33;;;11.03;;
17826;SDS011;9038;48.208;16.308;2022-12-10T06:13:53;14.90;;;11.97;;
17826;SDS011;9038;48.208;16.308;2022-12-10T06:15:55;16.53;;;12.03;;
17826;SDS011;9038;48.208;16.308;2022-12-10T06:17:57;16.37;;;11.83;;
17826;SDS011;9038;48.208;16.308;2022-12-10T06:20:01;14.23;;;11.40;;
17826;SDS011;9038;48.208;16.308;2022-12-10T06:22:03;15.97;;;11.77;;
17826;SDS011;9038;48.208;16.308;2022-12-10T06:24:06;16.80;;;12.77;;
17826;SDS011;9038;48.208;16.308;2022-12-10T06:26:09;20.87;;;14.80;;
17826;SDS011;9038;48.208;16.308;2022-12-10T06:28:12;16.40;;;11.97;;
17826;SDS011;9038;48.208;16.308;2022-12-10T06:30:14;16.30;;;12.53;;
17826;SDS011;9038;48.208;16.308;2022-12-10T06:32:16;15.30;;;11.37;;
17826;SDS011;9038;48.208;16.308;2022-12-10T06:34:18;17.90;;;12.33;;
17826;SDS011;9038;48.208;16.308;2022-12-10T06:36:21;15.20;;;11.60;;
17826;SDS011;9038;48.208;16.308;2022-12-10T06:38:23;16.03;;;12.63;;
17826;SDS011;9038;48.208;16.308;2022-12-10T06:40:25;16.60;;;11.83;;
17826;SDS011;9038;48.208;16.308;2022-12-10T06:42:27;16.00;;;12.00;;
17826;SDS011;9038;48.208;16.308;2022-12-10T06:44:29;17.03;;;12.83;;
17826;SDS011;9038;48.208;16.308;2022-12-10T06:46:31;15.43;;;11.67;;
17826;SDS011;9038;48.208;16.308;2022-12-10T06:48:33;16.33;;;11.87;;
17826;SDS011;9038;48.208;16.308;2022-12-10T06:50:35;18.63;;;13.43;;
17826;SDS011;9038;48.208;16.308;2022-12-10T06:52:39;18.20;;;12.27;;
17826;SDS011;9038;48.208;16.308;2022-12-10T06:54:41;18.13;;;12.90;;
17826;SDS011;9038;48.208;16.308;2022-12-10T06:56:42;17.37;;;13.27;;
17826;SDS011;9038;48.208;16.308;2022-12-10T06:58:44;18.07;;;13.33;;
17826;SDS011;9038;48.208;16.308;2022-12-10T07:00:47;16.93;;;13.10;;
17826;SDS011;9038;48.208;16.308;2022-12-10T07:02:49;15.90;;;12.60;;
17826;SDS011;9038;48.208;16.308;2022-12-10T07:04:50;18.43;;;13.47;;
17826;SDS011;9038;48.208;16.308;2022-12-10T07:06:56;20.20;;;13.87;;
17826;SDS011;9038;48.208;16.308;2022-12-10T07:08:59;20.67;;;14.30;;
17826;SDS011;9038;48.208;16.308;2022-12-10T07:11:02;17.30;;;14.03;;
17826;SDS011;9038;48.208;16.308;2022-12-10T07:13:05;17.57;;;13.17;;
17826;SDS011;9038;48.208;16.308;2022-12-10T07:15:07;19.67;;;13.77;;
17826;SDS011;9038;48.208;16.308;2022-12-10T07:17:10;18.43;;;13.47;;
17826;SDS011;9038;48.208;16.308;2022-12-10T07:19:12;19.13;;;13.97;;
17826;SDS011;9038;48.208;16.308;2022-12-10T07:21:14;19.77;;;13.93;;
17826;SDS011;9038;48.208;16.308;2022-12-10T07:23:17;18.43;;;13.53;;
17826;SDS011;9038;48.208;16.308;2022-12-10T07:25:20;17.50;;;13.80;;
17826;SDS011;9038;48.208;16.308;2022-12-10T07:27:22;19.17;;;13.93;;
17826;SDS011;9038;48.208;16.308;2022-12-10T07:29:24;19.70;;;14.30;;
17826;SDS011;9038;48.208;16.308;2022-12-10T07:31:27;19.87;;;14.37;;
17826;SDS011;9038;48.208;16.308;2022-12-10T07:33:29;19.77;;;13.40;;
17826;SDS011;9038;48.208;16.308;2022-12-10T07:35:31;22.83;;;14.43;;
17826;SDS011;9038;48.208;16.308;2022-12-10T07:37:33;20.93;;;13.67;;
17826;SDS011;9038;48.208;16.308;2022-12-10T07:39:35;16.63;;;13.07;;
17826;SDS011;9038;48.208;16.308;2022-12-10T07:41:38;21.57;;;14.57;;
17826;SDS011;9038;48.208;16.308;2022-12-10T07:43:41;19.40;;;14.10;;
17826;SDS011;9038;48.208;16.308;2022-12-10T07:45:44;21.43;;;14.00;;
17826;SDS011;9038;48.208;16.308;2022-12-10T07:47:45;21.57;;;14.97;;
17826;SDS011;9038;48.208;16.308;2022-12-10T07:49:48;21.63;;;15.10;;
17826;SDS011;9038;48.208;16.308;2022-12-10T07:51:50;21.97;;;13.50;;
17826;SDS011;9038;48.208;16.308;2022-12-10T07:53:53;23.30;;;15.40;;
17826;SDS011;9038;48.208;16.308;2022-12-10T07:55:55;19.10;;;13.97;;
17826;SDS011;9038;48.208;16.308;2022-12-10T07:57:58;19.87;;;13.83;;
17826;SDS011;9038;48.208;16.308;2022-12-10T08:00:00;18.83;;;13.63;;
17826;SDS011;9038;48.208;16.308;2022-12-10T08:02:02;20.23;;;13.90;;
17826;SDS011;9038;48.208;16.308;2022-12-10T08:04:05;24.03;;;14.50;;
17826;SDS011;9038;48.208;16.308;2022-12-10T08:06:07;21.37;;;14.13;;
17826;SDS011;9038;48.208;16.308;2022-12-10T08:08:11;19.43;;;13.47;;
17826;SDS011;9038;48.208;16.308;2022-12-10T08:10:12;21.87;;;15.47;;
17826;SDS011;9038;48.208;16.308;2022-12-10T08:12:14;19.63;;;13.30;;
17826;SDS011;9038;48.208;16.308;2022-12-10T08:14:18;27.70;;;15.27;;
17826;SDS011;9038;48.208;16.308;2022-12-10T08:16:20;21.63;;;14.13;;
17826;SDS011;9038;48.208;16.308;2022-12-10T08:18:25;22.63;;;14.70;;
17826;SDS011;9038;48.208;16.308;2022-12-10T08:20:27;17.83;;;13.57;;
17826;SDS011;9038;48.208;16.308;2022-12-10T08:22:29;21.47;;;14.10;;
17826;SDS011;9038;48.208;16.308;2022-12-10T08:24:31;26.70;;;15.07;;
17826;SDS011;9038;48.208;16.308;2022-12-10T08:26:33;21.63;;;14.03;;
17826;SDS011;9038;48.208;16.308;2022-12-10T08:28:35;20.27;;;14.70;;
17826;SDS011;9038;48.208;16.308;2022-12-10T08:30:39;26.27;;;15.33;;
17826;SDS011;9038;48.208;16.308;2022-12-10T08:32:41;25.27;;;15.80;;
17826;SDS011;9038;48.208;16.308;2022-12-10T08:34:42;20.60;;;14.53;;
17826;SDS011;9038;48.208;16.308;2022-12-10T08:36:45;26.27;;;15.10;;
17826;SDS011;9038;48.208;16.308;2022-12-10T08:38:47;22.40;;;14.83;;
17826;SDS011;9038;48.208;16.308;2022-12-10T08:40:49;23.80;;;15.03;;
17826;SDS011;9038;48.208;16.308;2022-12-10T08:42:51;25.37;;;15.50;;
17826;SDS011;9038;48.208;16.308;2022-12-10T08:44:53;24.23;;;15.00;;
17826;SDS011;9038;48.208;16.308;2022-12-10T08:46:56;24.23;;;14.80;;
17826;SDS011;9038;48.208;16.308;2022-12-10T08:48:58;24.30;;;15.07;;
17826;SDS011;9038;48.208;16.308;2022-12-10T08:51:00;22.30;;;15.53;;
17826;SDS011;9038;48.208;16.308;2022-12-10T08:53:02;26.37;;;16.37;;
17826;SDS011;9038;48.208;16.308;2022-12-10T08:55:05;22.83;;;14.77;;
17826;SDS011;9038;48.208;16.308;2022-12-10T08:57:07;21.30;;;15.23;;
17826;SDS011;9038;48.208;16.308;2022-12-10T08:59:09;22.73;;;15.53;;
17826;SDS011;9038;48.208;16.308;2022-12-10T09:01:12;23.00;;;15.60;;
17826;SDS011;9038;48.208;16.308;2022-12-10T09:03:16;22.07;;;15.30;;
17826;SDS011;9038;48.208;16.308;2022-12-10T09:05:18;19.97;;;15.20;;
17826;SDS011;9038;48.208;16.308;2022-12-10T09:07:20;26.30;;;16.23;;
17826;SDS011;9038;48.208;16.308;2022-12-10T09:09:22;22.00;;;14.93;;
17826;SDS011;9038;48.208;16.308;2022-12-10T09:11:25;26.80;;;15.23;;
17826;SDS011;9038;48.208;16.308;2022-12-10T09:13:28;20.77;;;14.77;;
17826;SDS011;9038;48.208;16.308;2022-12-10T09:15:30;21.87;;;15.47;;
17826;SDS011;9038;48.208;16.308;2022-12-10T09:17:34;22.97;;;14.73;;
17826;SDS011;9038;48.208;16.308;2022-12-10T09:19:38;23.80;;;15.30;;
17826;SDS011;9038;48.208;16.308;2022-12-10T09:21:40;23.57;;;14.90;;
17826;SDS011;9038;48.208;16.308;2022-12-10T09:23:42;18.80;;;14.47;;
17826;SDS011;9038;48.208;16.308;2022-12-10T09:25:44;19.70;;;14.63;;
17826;SDS011;9038;48.208;16.308;2022-12-10T09:27:46;21.30;;;14.33;;
17826;SDS011;9038;48.208;16.308;2022-12-10T09:29:47;23.17;;;14.93;;
17826;SDS011;9038;48.208;16.308;2022-12-10T09:31:49;18.17;;;13.67;;
17826;SDS011;9038;48.208;16.308;2022-12-10T09:33:52;22.20;;;14.90;;
17826;SDS011;9038;48.208;16.308;2022-12-10T09:35:56;19.60;;;13.80;;
17826;SDS011;9038;48.208;16.308;2022-12-10T09:37:58;22.33;;;15.73;;
17826;SDS011;9038;48.208;16.308;2022-12-10T09:40:00;20.97;;;14.63;;
17826;SDS011;9038;48.208;16.308;2022-12-10T09:42:07;19.93;;;15.07;;
17826;SDS011;9038;48.208;16.308;2022-12-10T09:44:21;21.20;;;14.10;;
17826;SDS011;9038;48.208;16.308;2022-12-10T09:46:32;21.77;;;14.37;;
17826;SDS011;9038;48.208;16.308;2022-12-10T09:48:46;19.70;;;14.50;;
17826;SDS011;9038;48.208;16.308;2022-12-10T09:51:02;20.83;;;14.63;;
17826;SDS011;9038;48.208;16.308;2022-12-10T09:53:11;20.57;;;14.30;;
17826;SDS011;9038;48.208;16.308;2022-12-10T09:55:16;21.23;;;14.47;;
17826;SDS011;9038;48.208;16.308;2022-12-10T09:57:21;20.57;;;14.27;;
17826;SDS011;9038;48.208;16.308;2022-12-10T09:59:29;19.83;;;13.83;;
17826;SDS011;9038;48.208;16.308;2022-12-10T10:01:33;19.23;;;14.70;;
17826;SDS011;9038;48.208;16.308;2022-12-10T10:03:37;22.80;;;14.70;;
17826;SDS011;9038;48.208;16.308;2022-12-10T10:05:42;21.23;;;15.50;;
17826;SDS011;9038;48.208;16.308;2022-12-10T10:07:50;20.00;;;14.53;;
17826;SDS011;9038;48.208;16.308;2022-12-10T10:09:55;19.77;;;14.17;;
17826;SDS011;9038;48.208;16.308;2022-12-10T10:11:59;20.30;;;14.73;;
17826;SDS011;9038;48.208;16.308;2022-12-10T10:14:03;22.23;;;14.93;;
17826;SDS011;9038;48.208;16.308;2022-12-10T10:16:14;22.03;;;15.47;;
17826;SDS011;9038;48.208;16.308;2022-12-10T10:18:23;20.70;;;14.00;;
17826;SDS011;9038;48.208;16.308;2022-12-10T10:20:34;18.87;;;14.30;;
17826;SDS011;9038;48.208;16.308;2022-12-10T10:22:36;21.23;;;14.83;;
17826;SDS011;9038;48.208;16.308;2022-12-10T10:24:41;20.07;;;15.07;;
17826;SDS011;9038;48.208;16.308;2022-12-10T10:26:45;20.13;;;14.43;;
17826;SDS011;9038;48.208;16.308;2022-12-10T10:28:47;21.83;;;15.47;;
17826;SDS011;9038;48.208;16.308;2022-12-10T10:30:54;20.43;;;14.90;;
17826;SDS011;9038;48.208;16.308;2022-12-10T10:32:56;22.30;;;15.60;;
17826;SDS011;9038;48.208;16.308;2022-12-10T10:35:02;20.57;;;15.17;;
17826;SDS011;9038;48.208;16.308;2022-12-10T10:37:06;23.60;;;15.07;;
17826;SDS011;9038;48.208;16.308;2022-12-10T10:39:20;25.57;;;16.27;;
17826;SDS011;9038;48.208;16.308;2022-12-10T10:41:29;20.57;;;14.80;;
17826;SDS011;9038;48.208;16.308;2022-12-10T10:43:39;22.23;;;16.40;;
17826;SDS011;9038;48.208;16.308;2022-12-10T10:45:43;24.17;;;16.00;;
17826;SDS011;9038;48.208;16.308;2022-12-10T10:47:50;22.73;;;15.87;;
17826;SDS011;9038;48.208;16.308;2022-12-10T10:50:12;20.87;;;15.20;;
17826;SDS011;9038;48.208;16.308;2022-12-10T10:52:27;22.07;;;15.33;;
17826;SDS011;9038;48.208;16.308;2022-12-10T10:54:32;20.73;;;15.17;;
17826;SDS011;9038;48.208;16.308;2022-12-10T10:56:39;22.07;;;14.83;;
17826;SDS011;9038;48.208;16.308;2022-12-10T11:01:04;22.10;;;15.30;;
17826;SDS011;9038;48.208;16.308;2022-12-10T11:03:08;20.93;;;14.63;;
17826;SDS011;9038;48.208;16.308;2022-12-10T11:05:15;19.80;;;14.77;;
17826;SDS011;9038;48.208;16.308;2022-12-10T11:07:23;20.87;;;14.70;;
17826;SDS011;9038;48.208;16.308;2022-12-10T11:09:28;24.30;;;16.33;;
17826;SDS011;9038;48.208;16.308;2022-12-10T11:11:33;20.93;;;15.13;;
17826;SDS011;9038;48.208;16.308;2022-12-10T11:13:39;21.43;;;15.50;;
17826;SDS011;9038;48.208;16.308;2022-12-10T11:15:41;19.93;;;14.90;;
17826;SDS011;9038;48.208;16.308;2022-12-10T11:17:45;21.80;;;15.23;;
17826;SDS011;9038;48.208;16.308;2022-12-10T11:19:53;22.17;;;16.23;;
17826;SDS011;9038;48.208;16.308;2022-12-10T11:22:01;19.57;;;15.20;;
17826;SDS011;9038;48.208;16.308;2022-12-10T11:24:24;23.37;;;16.10;;
17826;SDS011;9038;48.208;16.308;2022-12-10T11:26:37;25.33;;;17.33;;
17826;SDS011;9038;48.208;16.308;2022-12-10T11:28:56;24.50;;;17.27;;
17826;SDS011;9038;48.208;16.308;2022-12-10T11:31:20;24.53;;;16.93;;
17826;SDS011;9038;48.208;16.308;2022-12-10T11:33:48;27.10;;;17.87;;
17826;SDS011;9038;48.208;16.308;2022-12-10T11:35:59;25.13;;;17.03;;
17826;SDS011;9038;48.208;16.308;2022-12-10T11:38:09;24.77;;;17.83;;
17826;SDS011;9038;48.208;16.308;2022-12-10T11:40:36;24.50;;;17.03;;
17826;SDS011;9038;48.208;16.308;2022-12-10T11:42:44;21.60;;;15.53;;
17826;SDS011;9038;48.208;16.308;2022-12-10T11:45:00;24.07;;;16.20;;
17826;SDS011;9038;48.208;16.308;2022-12-10T11:47:13;25.90;;;17.33;;
17826;SDS011;9038;48.208;16.308;2022-12-10T11:49:26;27.87;;;17.87;;
17826;SDS011;9038;48.208;16.308;2022-12-10T11:51:35;23.73;;;16.90;;
17826;SDS011;9038;48.208;16.308;2022-12-10T11:53:47;23.80;;;16.87;;
17826;SDS011;9038;48.208;16.308;2022-12-10T11:55:59;26.23;;;18.47;;
17826;SDS011;9038;48.208;16.308;2022-12-10T11:58:15;23.30;;;16.87;;
17826;SDS011;9038;48.208;16.308;2022-12-10T12:00:39;24.77;;;17.27;;
17826;SDS011;9038;48.208;16.308;2022-12-10T12:02:51;27.27;;;18.13;;
17826;SDS011;9038;48.208;16.308;2022-12-10T12:05:11;31.27;;;19.30;;
17826;SDS011;9038;48.208;16.308;2022-12-10T12:07:33;28.37;;;17.67;;
17826;SDS011;9038;48.208;16.308;2022-12-10T12:09:43;28.57;;;18.30;;
17826;SDS011;9038;48.208;16.308;2022-12-10T12:11:59;27.67;;;18.50;;
17826;SDS011;9038;48.208;16.308;2022-12-10T12:14:12;24.90;;;17.10;;
17826;SDS011;9038;48.208;16.308;2022-12-10T12:16:21;23.43;;;16.47;;
17826;SDS011;9038;48.208;16.308;2022-12-10T12:18:32;25.87;;;17.27;;
17826;SDS011;9038;48.208;16.308;2022-12-10T12:20:42;26.67;;;18.10;;
17826;SDS011;9038;48.208;16.308;2022-12-10T12:22:47;25.33;;;17.03;;
17826;SDS011;9038;48.208;16.308;2022-12-10T12:24:53;24.20;;;17.07;;